sensor_id;sensor_type;location;lat;lon;timestamp;P1;durP1;ratioP1;P2;durP2;ratioP2
4555;SDS011;2290;48.674;9.018;2022-12-18T00:00:44;5.50;;;3.93;;
4555;SDS011;2290;48.674;9.018;2022-12-18T00:03:12;10.70;;;5.27;;
4555;SDS011;2290;48.674;9.018;2022-12-18T00:05:45;7.50;;;4.27;;
4555;SDS011;2290;48.674;9.018;2022-12-18T00:08:15;10.17;;;5.23;;
4555;SDS011;2290;48.674;9.018;2022-12-18T00:10:42;8.73;;;5.50;;
4555;SDS011;2290;48.674;9.018;2022-12-18T00:13:08;13.23;;;7.43;;
4555;SDS011;2290;48.674;9.018;2022-12-18T00:15:34;7.13;;;4.20;;
4555;SDS011;2290;48.674;9.018;2022-12-18T00:18:00;8.27;;;4.13;;
4555;SDS011;2290;48.674;9.018;2022-12-18T00:20:26;8.70;;;4.63;;
4555;SDS011;2290;48.674;9.018;2022-12-18T00:22:52;20.03;;;4.93;;
4555;SDS011;2290;48.674;9.018;2022-12-18T00:25:18;7.17;;;4.23;;
4555;SDS011;2290;48.674;9.018;2022-12-18T00:27:44;12.30;;;5.37;;
4555;SDS011;2290;48.674;9.018;2022-12-18T00:30:10;10.57;;;4.57;;
4555;SDS011;2290;48.674;9.018;2022-12-18T00:32:36;9.20;;;5.03;;
4555;SDS011;2290;48.674;9.018;2022-12-18T00:35:02;15.97;;;7.00;;
4555;SDS011;2290;48.674;9.018;2022-12-18T00:37:28;7.77;;;4.97;;
4555;SDS011;2290;48.674;9.018;2022-12-18T00:39:54;7.70;;;4.00;;
4555;SDS011;2290;48.674;9.018;2022-12-18T00:42:19;8.13;;;4.80;;
4555;SDS011;2290;48.674;9.018;2022-12-18T00:45:03;6.50;;;5.47;;
4555;SDS011;2290;48.674;9.018;2022-12-18T00:47:29;7.60;;;4.70;;
4555;SDS011;2290;48.674;9.018;2022-12-18T00:49:55;8.60;;;6.20;;
4555;SDS011;2290;48.674;9.018;2022-12-18T00:52:20;11.37;;;5.43;;
4555;SDS011;2290;48.674;9.018;2022-12-18T00:54:47;6.77;;;4.47;;
4555;SDS011;2290;48.674;9.018;2022-12-18T00:57:13;10.40;;;4.70;;
4555;SDS011;2290;48.674;9.018;2022-12-18T00:59:38;9.03;;;4.30;;
4555;SDS011;2290;48.674;9.018;2022-12-18T01:02:04;6.03;;;4.10;;
4555;SDS011;2290;48.674;9.018;2022-12-18T01:04:31;11.47;;;5.20;;
4555;SDS011;2290;48.674;9.018;2022-12-18T01:06:57;16.33;;;6.43;;
4555;SDS011;2290;48.674;9.018;2022-12-18T01:09:22;11.03;;;4.77;;
4555;SDS011;2290;48.674;9.018;2022-12-18T01:11:48;4.57;;;4.00;;
4555;SDS011;2290;48.674;9.018;2022-12-18T01:14:13;9.20;;;4.47;;
4555;SDS011;2290;48.674;9.018;2022-12-18T01:16:39;15.63;;;3.80;;
4555;SDS011;2290;48.674;9.018;2022-12-18T01:19:04;6.43;;;4.30;;
4555;SDS011;2290;48.674;9.018;2022-12-18T01:21:30;13.80;;;4.97;;
4555;SDS011;2290;48.674;9.018;2022-12-18T01:23:56;6.67;;;3.77;;
4555;SDS011;2290;48.674;9.018;2022-12-18T01:26:22;8.50;;;5.27;;
4555;SDS011;2290;48.674;9.018;2022-12-18T01:28:48;10.33;;;5.70;;
4555;SDS011;2290;48.674;9.018;2022-12-18T01:31:18;7.47;;;3.27;;
4555;SDS011;2290;48.674;9.018;2022-12-18T01:33:47;20.30;;;6.20;;
4555;SDS011;2290;48.674;9.018;2022-12-18T01:36:16;9.07;;;4.83;;
4555;SDS011;2290;48.674;9.018;2022-12-18T01:38:47;8.80;;;4.30;;
4555;SDS011;2290;48.674;9.018;2022-12-18T01:41:13;10.47;;;5.63;;
4555;SDS011;2290;48.674;9.018;2022-12-18T01:43:41;4.10;;;3.30;;
4555;SDS011;2290;48.674;9.018;2022-12-18T01:46:15;11.97;;;4.10;;
4555;SDS011;2290;48.674;9.018;2022-12-18T01:48:42;13.63;;;4.27;;
4555;SDS011;2290;48.674;9.018;2022-12-18T01:51:10;7.63;;;4.83;;
4555;SDS011;2290;48.674;9.018;2022-12-18T01:53:37;10.00;;;4.73;;
4555;SDS011;2290;48.674;9.018;2022-12-18T01:56:05;8.87;;;5.77;;
4555;SDS011;2290;48.674;9.018;2022-12-18T02:01:04;8.83;;;5.13;;
4555;SDS011;2290;48.674;9.018;2022-12-18T02:03:30;10.63;;;5.17;;
4555;SDS011;2290;48.674;9.018;2022-12-18T02:08:35;8.77;;;4.83;;
4555;SDS011;2290;48.674;9.018;2022-12-18T02:11:18;14.60;;;6.03;;
4555;SDS011;2290;48.674;9.018;2022-12-18T02:14:04;16.40;;;4.80;;
4555;SDS011;2290;48.674;9.018;2022-12-18T02:28:41;7.10;;;3.07;;
4555;SDS011;2290;48.674;9.018;2022-12-18T02:31:11;9.67;;;5.33;;
4555;SDS011;2290;48.674;9.018;2022-12-18T02:33:40;22.20;;;6.80;;
4555;SDS011;2290;48.674;9.018;2022-12-18T02:36:09;12.53;;;5.80;;
4555;SDS011;2290;48.674;9.018;2022-12-18T02:38:37;12.93;;;6.10;;
4555;SDS011;2290;48.674;9.018;2022-12-18T02:41:04;13.17;;;5.60;;
4555;SDS011;2290;48.674;9.018;2022-12-18T02:43:31;13.03;;;5.33;;
4555;SDS011;2290;48.674;9.018;2022-12-18T02:45:58;7.47;;;3.80;;
4555;SDS011;2290;48.674;9.018;2022-12-18T02:48:31;13.33;;;5.17;;
4555;SDS011;2290;48.674;9.018;2022-12-18T02:51:14;9.93;;;6.00;;
4555;SDS011;2290;48.674;9.018;2022-12-18T02:54:20;7.00;;;3.87;;
4555;SDS011;2290;48.674;9.018;2022-12-18T02:57:43;12.50;;;3.50;;
4555;SDS011;2290;48.674;9.018;2022-12-18T03:00:30;15.40;;;5.30;;
4555;SDS011;2290;48.674;9.018;2022-12-18T03:03:09;4.87;;;4.37;;
4555;SDS011;2290;48.674;9.018;2022-12-18T03:05:43;6.70;;;3.87;;
4555;SDS011;2290;48.674;9.018;2022-12-18T03:08:15;13.23;;;5.73;;
4555;SDS011;2290;48.674;9.018;2022-12-18T03:10:47;8.67;;;5.00;;
4555;SDS011;2290;48.674;9.018;2022-12-18T03:13:17;7.50;;;4.23;;
4555;SDS011;2290;48.674;9.018;2022-12-18T03:15:49;10.27;;;4.10;;
4555;SDS011;2290;48.674;9.018;2022-12-18T03:18:25;11.17;;;4.90;;
4555;SDS011;2290;48.674;9.018;2022-12-18T03:21:04;9.37;;;3.70;;
4555;SDS011;2290;48.674;9.018;2022-12-18T03:23:33;5.03;;;4.20;;
4555;SDS011;2290;48.674;9.018;2022-12-18T03:26:05;12.23;;;5.87;;
4555;SDS011;2290;48.674;9.018;2022-12-18T03:28:35;7.10;;;5.20;;
4555;SDS011;2290;48.674;9.018;2022-12-18T03:31:04;8.20;;;4.47;;
4555;SDS011;2290;48.674;9.018;2022-12-18T03:33:34;8.83;;;3.93;;
4555;SDS011;2290;48.674;9.018;2022-12-18T03:36:11;7.73;;;4.33;;
4555;SDS011;2290;48.674;9.018;2022-12-18T03:38:36;12.60;;;5.00;;
4555;SDS011;2290;48.674;9.018;2022-12-18T03:46:52;7.77;;;4.33;;
4555;SDS011;2290;48.674;9.018;2022-12-18T03:52:30;7.73;;;4.17;;
4555;SDS011;2290;48.674;9.018;2022-12-18T03:55:01;10.50;;;5.03;;
4555;SDS011;2290;48.674;9.018;2022-12-18T03:57:29;10.70;;;4.87;;
4555;SDS011;2290;48.674;9.018;2022-12-18T04:00:30;12.30;;;5.87;;
4555;SDS011;2290;48.674;9.018;2022-12-18T04:02:50;12.93;;;5.50;;
4555;SDS011;2290;48.674;9.018;2022-12-18T04:05:18;6.70;;;4.00;;
4555;SDS011;2290;48.674;9.018;2022-12-18T04:07:45;7.00;;;4.33;;
4555;SDS011;2290;48.674;9.018;2022-12-18T04:10:13;9.17;;;4.53;;
4555;SDS011;2290;48.674;9.018;2022-12-18T04:12:41;14.60;;;6.07;;
4555;SDS011;2290;48.674;9.018;2022-12-18T04:15:07;15.57;;;5.67;;
4555;SDS011;2290;48.674;9.018;2022-12-18T04:17:33;10.00;;;4.63;;
4555;SDS011;2290;48.674;9.018;2022-12-18T04:19:59;9.63;;;5.30;;
4555;SDS011;2290;48.674;9.018;2022-12-18T04:22:24;7.23;;;3.40;;
4555;SDS011;2290;48.674;9.018;2022-12-18T04:24:50;11.03;;;4.20;;
4555;SDS011;2290;48.674;9.018;2022-12-18T04:27:15;10.73;;;5.90;;
4555;SDS011;2290;48.674;9.018;2022-12-18T04:29:41;11.03;;;4.77;;
4555;SDS011;2290;48.674;9.018;2022-12-18T04:32:07;8.57;;;4.23;;
4555;SDS011;2290;48.674;9.018;2022-12-18T04:34:33;10.17;;;5.93;;
4555;SDS011;2290;48.674;9.018;2022-12-18T04:36:58;9.70;;;5.03;;
4555;SDS011;2290;48.674;9.018;2022-12-18T04:39:24;8.93;;;4.77;;
4555;SDS011;2290;48.674;9.018;2022-12-18T04:41:49;6.40;;;3.90;;
4555;SDS011;2290;48.674;9.018;2022-12-18T04:44:16;5.87;;;3.87;;
4555;SDS011;2290;48.674;9.018;2022-12-18T04:46:41;12.07;;;5.00;;
4555;SDS011;2290;48.674;9.018;2022-12-18T04:49:07;11.93;;;5.30;;
4555;SDS011;2290;48.674;9.018;2022-12-18T04:51:33;11.93;;;4.27;;
4555;SDS011;2290;48.674;9.018;2022-12-18T04:53:58;10.43;;;5.53;;
4555;SDS011;2290;48.674;9.018;2022-12-18T04:56:25;16.33;;;6.23;;
4555;SDS011;2290;48.674;9.018;2022-12-18T04:58:50;12.63;;;5.00;;
4555;SDS011;2290;48.674;9.018;2022-12-18T05:01:16;9.83;;;4.73;;
4555;SDS011;2290;48.674;9.018;2022-12-18T05:03:42;8.50;;;5.07;;
4555;SDS011;2290;48.674;9.018;2022-12-18T05:06:08;8.90;;;4.63;;
4555;SDS011;2290;48.674;9.018;2022-12-18T05:08:34;15.50;;;5.30;;
4555;SDS011;2290;48.674;9.018;2022-12-18T05:11:10;8.33;;;4.00;;
4555;SDS011;2290;48.674;9.018;2022-12-18T05:13:39;14.50;;;4.33;;
4555;SDS011;2290;48.674;9.018;2022-12-18T05:16:05;11.03;;;5.90;;
4555;SDS011;2290;48.674;9.018;2022-12-18T05:18:31;8.33;;;3.93;;
4555;SDS011;2290;48.674;9.018;2022-12-18T05:20:57;10.67;;;5.40;;
4555;SDS011;2290;48.674;9.018;2022-12-18T05:23:23;11.67;;;5.27;;
4555;SDS011;2290;48.674;9.018;2022-12-18T05:25:57;13.00;;;5.70;;
4555;SDS011;2290;48.674;9.018;2022-12-18T05:28:25;10.00;;;4.73;;
4555;SDS011;2290;48.674;9.018;2022-12-18T05:30:52;9.27;;;4.50;;
4555;SDS011;2290;48.674;9.018;2022-12-18T05:33:22;8.77;;;4.03;;
4555;SDS011;2290;48.674;9.018;2022-12-18T05:36:07;8.27;;;3.70;;
4555;SDS011;2290;48.674;9.018;2022-12-18T05:38:35;12.53;;;4.10;;
4555;SDS011;2290;48.674;9.018;2022-12-18T05:41:02;11.30;;;5.33;;
4555;SDS011;2290;48.674;9.018;2022-12-18T05:43:28;9.33;;;4.90;;
4555;SDS011;2290;48.674;9.018;2022-12-18T05:45:54;10.80;;;5.20;;
4555;SDS011;2290;48.674;9.018;2022-12-18T05:48:20;15.67;;;5.40;;
4555;SDS011;2290;48.674;9.018;2022-12-18T05:50:46;8.93;;;4.17;;
4555;SDS011;2290;48.674;9.018;2022-12-18T05:53:13;12.10;;;5.33;;
4555;SDS011;2290;48.674;9.018;2022-12-18T05:55:40;11.23;;;4.90;;
4555;SDS011;2290;48.674;9.018;2022-12-18T05:58:08;10.87;;;5.07;;
4555;SDS011;2290;48.674;9.018;2022-12-18T06:00:35;6.50;;;4.40;;
4555;SDS011;2290;48.674;9.018;2022-12-18T06:03:05;16.40;;;4.87;;
4555;SDS011;2290;48.674;9.018;2022-12-18T06:05:34;11.87;;;4.83;;
4555;SDS011;2290;48.674;9.018;2022-12-18T06:08:02;7.40;;;5.50;;
4555;SDS011;2290;48.674;9.018;2022-12-18T06:10:27;5.90;;;3.87;;
4555;SDS011;2290;48.674;9.018;2022-12-18T06:12:53;10.43;;;4.70;;
4555;SDS011;2290;48.674;9.018;2022-12-18T06:15:19;8.80;;;5.70;;
4555;SDS011;2290;48.674;9.018;2022-12-18T06:17:44;12.33;;;4.20;;
4555;SDS011;2290;48.674;9.018;2022-12-18T06:20:10;9.43;;;6.07;;
4555;SDS011;2290;48.674;9.018;2022-12-18T06:22:35;10.77;;;4.53;;
4555;SDS011;2290;48.674;9.018;2022-12-18T06:25:01;11.83;;;5.70;;
4555;SDS011;2290;48.674;9.018;2022-12-18T06:27:27;8.17;;;3.90;;
4555;SDS011;2290;48.674;9.018;2022-12-18T06:29:52;7.17;;;3.53;;
4555;SDS011;2290;48.674;9.018;2022-12-18T06:32:18;23.63;;;4.90;;
4555;SDS011;2290;48.674;9.018;2022-12-18T06:34:43;10.47;;;4.77;;
4555;SDS011;2290;48.674;9.018;2022-12-18T06:37:09;10.93;;;4.03;;
4555;SDS011;2290;48.674;9.018;2022-12-18T06:39:34;11.00;;;5.17;;
4555;SDS011;2290;48.674;9.018;2022-12-18T06:42:00;9.07;;;4.67;;
4555;SDS011;2290;48.674;9.018;2022-12-18T06:44:26;8.33;;;4.03;;
4555;SDS011;2290;48.674;9.018;2022-12-18T06:46:53;15.10;;;7.00;;
4555;SDS011;2290;48.674;9.018;2022-12-18T06:49:18;5.70;;;3.20;;
4555;SDS011;2290;48.674;9.018;2022-12-18T07:09:51;10.03;;;4.47;;
4555;SDS011;2290;48.674;9.018;2022-12-18T07:12:17;13.23;;;3.60;;
4555;SDS011;2290;48.674;9.018;2022-12-18T07:14:43;10.07;;;3.53;;
4555;SDS011;2290;48.674;9.018;2022-12-18T07:22:19;7.60;;;3.77;;
4555;SDS011;2290;48.674;9.018;2022-12-18T07:24:45;15.10;;;5.33;;
4555;SDS011;2290;48.674;9.018;2022-12-18T07:27:10;6.57;;;4.70;;
4555;SDS011;2290;48.674;9.018;2022-12-18T07:29:36;10.17;;;4.30;;
4555;SDS011;2290;48.674;9.018;2022-12-18T07:32:02;12.47;;;4.80;;
4555;SDS011;2290;48.674;9.018;2022-12-18T07:34:27;7.43;;;4.27;;
4555;SDS011;2290;48.674;9.018;2022-12-18T07:36:53;10.90;;;6.47;;
4555;SDS011;2290;48.674;9.018;2022-12-18T07:39:18;5.40;;;4.43;;
4555;SDS011;2290;48.674;9.018;2022-12-18T07:41:44;12.47;;;5.93;;
4555;SDS011;2290;48.674;9.018;2022-12-18T07:44:31;14.03;;;5.47;;
4555;SDS011;2290;48.674;9.018;2022-12-18T07:46:56;25.23;;;6.03;;
4555;SDS011;2290;48.674;9.018;2022-12-18T07:49:22;11.93;;;5.47;;
4555;SDS011;2290;48.674;9.018;2022-12-18T07:51:47;9.33;;;5.00;;
4555;SDS011;2290;48.674;9.018;2022-12-18T07:54:14;8.37;;;4.50;;
4555;SDS011;2290;48.674;9.018;2022-12-18T07:56:39;11.80;;;5.43;;
4555;SDS011;2290;48.674;9.018;2022-12-18T07:59:05;9.73;;;4.30;;
4555;SDS011;2290;48.674;9.018;2022-12-18T08:01:31;10.83;;;4.40;;
4555;SDS011;2290;48.674;9.018;2022-12-18T08:03:57;11.50;;;4.50;;
4555;SDS011;2290;48.674;9.018;2022-12-18T08:06:23;14.27;;;5.20;;
4555;SDS011;2290;48.674;9.018;2022-12-18T08:08:50;7.87;;;3.80;;
4555;SDS011;2290;48.674;9.018;2022-12-18T08:11:19;10.70;;;3.67;;
4555;SDS011;2290;48.674;9.018;2022-12-18T08:13:44;9.63;;;4.17;;
4555;SDS011;2290;48.674;9.018;2022-12-18T08:16:10;13.13;;;5.33;;
4555;SDS011;2290;48.674;9.018;2022-12-18T08:18:36;14.90;;;6.30;;
4555;SDS011;2290;48.674;9.018;2022-12-18T08:21:09;14.10;;;5.20;;
4555;SDS011;2290;48.674;9.018;2022-12-18T08:23:35;8.27;;;4.27;;
4555;SDS011;2290;48.674;9.018;2022-12-18T08:26:01;15.97;;;6.40;;
4555;SDS011;2290;48.674;9.018;2022-12-18T08:28:26;15.23;;;4.20;;
4555;SDS011;2290;48.674;9.018;2022-12-18T08:30:52;12.83;;;5.47;;
4555;SDS011;2290;48.674;9.018;2022-12-18T08:33:18;10.13;;;4.73;;
4555;SDS011;2290;48.674;9.018;2022-12-18T08:35:43;12.40;;;5.20;;
4555;SDS011;2290;48.674;9.018;2022-12-18T08:38:09;8.87;;;4.40;;
4555;SDS011;2290;48.674;9.018;2022-12-18T08:40:34;12.40;;;6.00;;
4555;SDS011;2290;48.674;9.018;2022-12-18T08:43:00;11.13;;;4.80;;
4555;SDS011;2290;48.674;9.018;2022-12-18T08:45:44;17.13;;;5.70;;
4555;SDS011;2290;48.674;9.018;2022-12-18T08:48:09;12.53;;;5.40;;
4555;SDS011;2290;48.674;9.018;2022-12-18T08:50:35;10.87;;;4.43;;
4555;SDS011;2290;48.674;9.018;2022-12-18T08:53:01;20.07;;;7.23;;
4555;SDS011;2290;48.674;9.018;2022-12-18T08:55:28;14.47;;;4.70;;
4555;SDS011;2290;48.674;9.018;2022-12-18T08:57:54;14.00;;;6.33;;
4555;SDS011;2290;48.674;9.018;2022-12-18T09:00:19;13.43;;;5.80;;
4555;SDS011;2290;48.674;9.018;2022-12-18T09:02:45;14.57;;;5.87;;
4555;SDS011;2290;48.674;9.018;2022-12-18T09:05:10;17.43;;;6.90;;
4555;SDS011;2290;48.674;9.018;2022-12-18T09:07:36;14.50;;;5.70;;
4555;SDS011;2290;48.674;9.018;2022-12-18T09:10:02;12.43;;;6.27;;
4555;SDS011;2290;48.674;9.018;2022-12-18T09:12:28;16.77;;;7.20;;
4555;SDS011;2290;48.674;9.018;2022-12-18T09:14:53;15.07;;;7.03;;
4555;SDS011;2290;48.674;9.018;2022-12-18T09:17:20;18.80;;;5.77;;
4555;SDS011;2290;48.674;9.018;2022-12-18T09:19:46;14.83;;;6.63;;
4555;SDS011;2290;48.674;9.018;2022-12-18T09:22:11;18.63;;;7.40;;
4555;SDS011;2290;48.674;9.018;2022-12-18T09:24:37;10.30;;;5.20;;
4555;SDS011;2290;48.674;9.018;2022-12-18T09:27:02;14.17;;;5.90;;
4555;SDS011;2290;48.674;9.018;2022-12-18T09:29:28;15.17;;;6.10;;
4555;SDS011;2290;48.674;9.018;2022-12-18T09:31:53;22.87;;;7.67;;
4555;SDS011;2290;48.674;9.018;2022-12-18T09:34:19;13.80;;;6.80;;
4555;SDS011;2290;48.674;9.018;2022-12-18T09:36:46;13.93;;;6.30;;
4555;SDS011;2290;48.674;9.018;2022-12-18T09:39:12;15.13;;;6.87;;
4555;SDS011;2290;48.674;9.018;2022-12-18T09:44:31;12.00;;;5.60;;
4555;SDS011;2290;48.674;9.018;2022-12-18T09:47:04;12.07;;;5.50;;
4555;SDS011;2290;48.674;9.018;2022-12-18T09:49:44;10.63;;;5.67;;
4555;SDS011;2290;48.674;9.018;2022-12-18T09:52:13;14.03;;;6.67;;
4555;SDS011;2290;48.674;9.018;2022-12-18T09:54:40;14.77;;;5.83;;
4555;SDS011;2290;48.674;9.018;2022-12-18T09:57:18;18.00;;;5.80;;
4555;SDS011;2290;48.674;9.018;2022-12-18T09:59:48;18.40;;;7.03;;
4555;SDS011;2290;48.674;9.018;2022-12-18T10:02:19;17.53;;;6.67;;
4555;SDS011;2290;48.674;9.018;2022-12-18T10:05:10;12.77;;;6.47;;
4555;SDS011;2290;48.674;9.018;2022-12-18T10:07:54;14.87;;;6.37;;
4555;SDS011;2290;48.674;9.018;2022-12-18T10:10:23;14.40;;;6.30;;
4555;SDS011;2290;48.674;9.018;2022-12-18T10:15:44;20.57;;;8.60;;
4555;SDS011;2290;48.674;9.018;2022-12-18T10:18:19;18.90;;;8.43;;
4555;SDS011;2290;48.674;9.018;2022-12-18T10:21:19;17.73;;;8.13;;
4555;SDS011;2290;48.674;9.018;2022-12-18T10:26:34;13.10;;;6.73;;
4555;SDS011;2290;48.674;9.018;2022-12-18T10:29:00;13.13;;;6.00;;
4555;SDS011;2290;48.674;9.018;2022-12-18T10:31:26;20.50;;;6.93;;
4555;SDS011;2290;48.674;9.018;2022-12-18T10:33:55;12.33;;;6.60;;
4555;SDS011;2290;48.674;9.018;2022-12-18T10:36:21;15.60;;;7.17;;
4555;SDS011;2290;48.674;9.018;2022-12-18T10:38:48;19.73;;;6.63;;
4555;SDS011;2290;48.674;9.018;2022-12-18T10:46:46;14.30;;;6.27;;
4555;SDS011;2290;48.674;9.018;2022-12-18T10:49:19;16.90;;;7.50;;
4555;SDS011;2290;48.674;9.018;2022-12-18T10:54:51;18.17;;;7.47;;
4555;SDS011;2290;48.674;9.018;2022-12-18T11:02:44;12.10;;;5.63;;
4555;SDS011;2290;48.674;9.018;2022-12-18T11:07:55;18.90;;;7.37;;
4555;SDS011;2290;48.674;9.018;2022-12-18T11:10:25;22.40;;;8.70;;
4555;SDS011;2290;48.674;9.018;2022-12-18T11:12:55;16.07;;;6.10;;
4555;SDS011;2290;48.674;9.018;2022-12-18T11:15:21;19.30;;;7.60;;
4555;SDS011;2290;48.674;9.018;2022-12-18T11:17:53;17.70;;;7.90;;
4555;SDS011;2290;48.674;9.018;2022-12-18T11:20:20;18.10;;;7.00;;
4555;SDS011;2290;48.674;9.018;2022-12-18T11:22:55;20.03;;;6.83;;
4555;SDS011;2290;48.674;9.018;2022-12-18T11:25:35;14.60;;;6.20;;
4555;SDS011;2290;48.674;9.018;2022-12-18T11:28:05;15.70;;;7.67;;
4555;SDS011;2290;48.674;9.018;2022-12-18T11:30:50;15.67;;;6.70;;
4555;SDS011;2290;48.674;9.018;2022-12-18T11:33:33;21.40;;;7.87;;
4555;SDS011;2290;48.674;9.018;2022-12-18T11:36:00;21.17;;;7.87;;
4555;SDS011;2290;48.674;9.018;2022-12-18T11:38:29;16.50;;;7.60;;
4555;SDS011;2290;48.674;9.018;2022-12-18T11:41:05;22.00;;;8.17;;
4555;SDS011;2290;48.674;9.018;2022-12-18T11:43:45;17.97;;;6.70;;
4555;SDS011;2290;48.674;9.018;2022-12-18T11:46:30;19.83;;;8.43;;
4555;SDS011;2290;48.674;9.018;2022-12-18T11:52:18;16.73;;;6.70;;
4555;SDS011;2290;48.674;9.018;2022-12-18T11:54:52;14.33;;;7.47;;
4555;SDS011;2290;48.674;9.018;2022-12-18T11:57:30;18.17;;;8.37;;
4555;SDS011;2290;48.674;9.018;2022-12-18T12:02:52;17.37;;;7.63;;
4555;SDS011;2290;48.674;9.018;2022-12-18T12:05:28;18.70;;;7.93;;
4555;SDS011;2290;48.674;9.018;2022-12-18T12:16:37;21.57;;;9.37;;
4555;SDS011;2290;48.674;9.018;2022-12-18T12:35:28;28.30;;;12.53;;
4555;SDS011;2290;48.674;9.018;2022-12-18T12:38:11;37.47;;;14.53;;
4555;SDS011;2290;48.674;9.018;2022-12-18T12:40:49;19.10;;;9.47;;
4555;SDS011;2290;48.674;9.018;2022-12-18T12:43:25;32.20;;;13.93;;
4555;SDS011;2290;48.674;9.018;2022-12-18T12:46:08;21.27;;;9.30;;
4555;SDS011;2290;48.674;9.018;2022-12-18T12:53:47;28.20;;;14.60;;
4555;SDS011;2290;48.674;9.018;2022-12-18T12:56:14;35.60;;;18.17;;
4555;SDS011;2290;48.674;9.018;2022-12-18T13:06:58;17.60;;;8.37;;
4555;SDS011;2290;48.674;9.018;2022-12-18T13:09:32;20.53;;;8.07;;
4555;SDS011;2290;48.674;9.018;2022-12-18T13:12:05;16.47;;;7.10;;
4555;SDS011;2290;48.674;9.018;2022-12-18T13:15:01;21.93;;;8.63;;
4555;SDS011;2290;48.674;9.018;2022-12-18T13:17:45;22.20;;;8.77;;
4555;SDS011;2290;48.674;9.018;2022-12-18T13:20:11;25.17;;;8.30;;
4555;SDS011;2290;48.674;9.018;2022-12-18T13:22:45;15.80;;;7.20;;
4555;SDS011;2290;48.674;9.018;2022-12-18T13:28:09;18.67;;;7.73;;
4555;SDS011;2290;48.674;9.018;2022-12-18T13:30:53;21.00;;;8.27;;
4555;SDS011;2290;48.674;9.018;2022-12-18T13:45:47;17.70;;;7.87;;
4555;SDS011;2290;48.674;9.018;2022-12-18T13:48:24;20.90;;;8.00;;
4555;SDS011;2290;48.674;9.018;2022-12-18T13:50:52;24.87;;;8.47;;
4555;SDS011;2290;48.674;9.018;2022-12-18T13:56:09;25.73;;;8.93;;
4555;SDS011;2290;48.674;9.018;2022-12-18T13:58:41;22.60;;;8.80;;
4555;SDS011;2290;48.674;9.018;2022-12-18T14:01:20;30.60;;;10.03;;
4555;SDS011;2290;48.674;9.018;2022-12-18T14:03:48;25.67;;;10.10;;
4555;SDS011;2290;48.674;9.018;2022-12-18T14:06:13;16.43;;;8.70;;
4555;SDS011;2290;48.674;9.018;2022-12-18T14:08:40;22.93;;;10.90;;
4555;SDS011;2290;48.674;9.018;2022-12-18T14:11:12;23.10;;;9.03;;
4555;SDS011;2290;48.674;9.018;2022-12-18T14:13:44;16.07;;;7.73;;
4555;SDS011;2290;48.674;9.018;2022-12-18T14:16:12;19.80;;;8.73;;
4555;SDS011;2290;48.674;9.018;2022-12-18T14:21:15;24.13;;;8.20;;
4555;SDS011;2290;48.674;9.018;2022-12-18T14:26:36;17.83;;;7.97;;
4555;SDS011;2290;48.674;9.018;2022-12-18T14:29:19;19.40;;;8.70;;
4555;SDS011;2290;48.674;9.018;2022-12-18T14:31:45;19.10;;;8.40;;
4555;SDS011;2290;48.674;9.018;2022-12-18T14:34:16;26.43;;;9.13;;
4555;SDS011;2290;48.674;9.018;2022-12-18T14:36:51;18.33;;;8.50;;
4555;SDS011;2290;48.674;9.018;2022-12-18T14:39:18;21.67;;;10.17;;
4555;SDS011;2290;48.674;9.018;2022-12-18T14:41:44;20.90;;;9.30;;
4555;SDS011;2290;48.674;9.018;2022-12-18T14:44:11;21.97;;;10.10;;
4555;SDS011;2290;48.674;9.018;2022-12-18T14:46:38;22.53;;;9.10;;
4555;SDS011;2290;48.674;9.018;2022-12-18T14:51:58;27.87;;;9.30;;
4555;SDS011;2290;48.674;9.018;2022-12-18T14:54:27;30.93;;;10.60;;
4555;SDS011;2290;48.674;9.018;2022-12-18T14:59:27;20.47;;;9.10;;
4555;SDS011;2290;48.674;9.018;2022-12-18T15:04:27;22.07;;;9.80;;
4555;SDS011;2290;48.674;9.018;2022-12-18T15:09:42;17.03;;;7.67;;
4555;SDS011;2290;48.674;9.018;2022-12-18T15:13:15;23.53;;;9.03;;
4555;SDS011;2290;48.674;9.018;2022-12-18T15:15:43;28.73;;;9.10;;
4555;SDS011;2290;48.674;9.018;2022-12-18T15:23:21;20.07;;;8.70;;
4555;SDS011;2290;48.674;9.018;2022-12-18T15:26:05;22.73;;;10.10;;
4555;SDS011;2290;48.674;9.018;2022-12-18T15:31:02;26.97;;;10.07;;
4555;SDS011;2290;48.674;9.018;2022-12-18T15:36:18;21.63;;;9.97;;
4555;SDS011;2290;48.674;9.018;2022-12-18T15:38:52;17.50;;;7.93;;
4555;SDS011;2290;48.674;9.018;2022-12-18T15:41:19;28.63;;;9.03;;
4555;SDS011;2290;48.674;9.018;2022-12-18T15:43:49;23.00;;;8.60;;
4555;SDS011;2290;48.674;9.018;2022-12-18T15:48:46;16.00;;;8.60;;
4555;SDS011;2290;48.674;9.018;2022-12-18T15:53:56;18.17;;;7.87;;
4555;SDS011;2290;48.674;9.018;2022-12-18T15:56:24;15.93;;;8.77;;
4555;SDS011;2290;48.674;9.018;2022-12-18T15:59:10;23.83;;;7.67;;
4555;SDS011;2290;48.674;9.018;2022-12-18T16:01:38;18.37;;;7.13;;
4555;SDS011;2290;48.674;9.018;2022-12-18T16:04:04;14.43;;;8.27;;
4555;SDS011;2290;48.674;9.018;2022-12-18T16:06:30;20.87;;;8.00;;
4555;SDS011;2290;48.674;9.018;2022-12-18T16:08:56;17.90;;;7.77;;
4555;SDS011;2290;48.674;9.018;2022-12-18T16:11:26;18.67;;;8.77;;
4555;SDS011;2290;48.674;9.018;2022-12-18T16:14:15;18.53;;;7.90;;
4555;SDS011;2290;48.674;9.018;2022-12-18T16:16:46;19.07;;;7.87;;
4555;SDS011;2290;48.674;9.018;2022-12-18T16:19:13;20.10;;;8.97;;
4555;SDS011;2290;48.674;9.018;2022-12-18T16:21:39;22.90;;;9.40;;
4555;SDS011;2290;48.674;9.018;2022-12-18T16:24:09;23.40;;;8.00;;
4555;SDS011;2290;48.674;9.018;2022-12-18T16:26:39;22.20;;;8.90;;
4555;SDS011;2290;48.674;9.018;2022-12-18T16:29:06;23.63;;;7.67;;
4555;SDS011;2290;48.674;9.018;2022-12-18T16:31:32;14.00;;;7.73;;
4555;SDS011;2290;48.674;9.018;2022-12-18T16:36:51;13.20;;;7.10;;
4555;SDS011;2290;48.674;9.018;2022-12-18T16:39:18;19.77;;;7.80;;
4555;SDS011;2290;48.674;9.018;2022-12-18T16:41:45;16.97;;;7.63;;
4555;SDS011;2290;48.674;9.018;2022-12-18T16:44:11;22.33;;;8.23;;
4555;SDS011;2290;48.674;9.018;2022-12-18T16:46:37;20.10;;;8.00;;
4555;SDS011;2290;48.674;9.018;2022-12-18T16:49:03;13.10;;;7.13;;
4555;SDS011;2290;48.674;9.018;2022-12-18T16:51:29;24.93;;;8.73;;
4555;SDS011;2290;48.674;9.018;2022-12-18T16:53:55;19.63;;;7.27;;
4555;SDS011;2290;48.674;9.018;2022-12-18T16:56:21;19.77;;;8.37;;
4555;SDS011;2290;48.674;9.018;2022-12-18T16:58:51;16.53;;;7.07;;
4555;SDS011;2290;48.674;9.018;2022-12-18T17:01:17;19.30;;;8.63;;
4555;SDS011;2290;48.674;9.018;2022-12-18T17:03:43;15.87;;;7.57;;
4555;SDS011;2290;48.674;9.018;2022-12-18T17:06:08;20.13;;;7.70;;
4555;SDS011;2290;48.674;9.018;2022-12-18T17:08:34;17.30;;;8.30;;
4555;SDS011;2290;48.674;9.018;2022-12-18T17:11:03;20.17;;;8.03;;
4555;SDS011;2290;48.674;9.018;2022-12-18T17:13:32;24.57;;;8.47;;
4555;SDS011;2290;48.674;9.018;2022-12-18T17:16:05;28.90;;;8.93;;
4555;SDS011;2290;48.674;9.018;2022-12-18T17:18:32;24.93;;;9.40;;
4555;SDS011;2290;48.674;9.018;2022-12-18T17:21:02;19.77;;;7.67;;
4555;SDS011;2290;48.674;9.018;2022-12-18T17:23:29;22.10;;;8.50;;
4555;SDS011;2290;48.674;9.018;2022-12-18T17:25:58;16.30;;;8.23;;
4555;SDS011;2290;48.674;9.018;2022-12-18T17:28:25;20.17;;;7.23;;
4555;SDS011;2290;48.674;9.018;2022-12-18T17:30:51;21.87;;;9.33;;
4555;SDS011;2290;48.674;9.018;2022-12-18T17:33:18;17.97;;;8.20;;
4555;SDS011;2290;48.674;9.018;2022-12-18T17:35:43;15.80;;;7.70;;
4555;SDS011;2290;48.674;9.018;2022-12-18T17:38:09;21.37;;;6.90;;
4555;SDS011;2290;48.674;9.018;2022-12-18T17:40:35;17.40;;;8.10;;
4555;SDS011;2290;48.674;9.018;2022-12-18T17:43:00;14.17;;;7.40;;
4555;SDS011;2290;48.674;9.018;2022-12-18T17:45:26;15.13;;;7.10;;
4555;SDS011;2290;48.674;9.018;2022-12-18T17:47:52;18.37;;;8.30;;
4555;SDS011;2290;48.674;9.018;2022-12-18T17:50:18;19.90;;;7.50;;
4555;SDS011;2290;48.674;9.018;2022-12-18T17:52:45;24.20;;;8.43;;
4555;SDS011;2290;48.674;9.018;2022-12-18T17:55:10;20.07;;;8.90;;
4555;SDS011;2290;48.674;9.018;2022-12-18T17:57:36;23.90;;;8.53;;
4555;SDS011;2290;48.674;9.018;2022-12-18T18:00:05;22.77;;;8.90;;
4555;SDS011;2290;48.674;9.018;2022-12-18T18:02:31;19.47;;;8.07;;
4555;SDS011;2290;48.674;9.018;2022-12-18T18:04:56;22.17;;;8.20;;
4555;SDS011;2290;48.674;9.018;2022-12-18T18:07:22;18.50;;;7.97;;
4555;SDS011;2290;48.674;9.018;2022-12-18T18:09:48;24.33;;;10.13;;